Terminal Aerodrome Forecast
Issued by NWS Austin/San Antonio, TX

Home | Current Version | Previous Version | Text Only | Print | Product List | Glossary On
Versions: 1 2 3 4 5 6 7 8 9 10 11 12 13 14 15 16 17 18 19
740
FTUS44 KEWX 141744
TAFAUS
TAF
KAUS 141744Z 1418/1524 01011KT P6SM SCT150 BKN250
     FM150200 02012KT P6SM BKN120=

USA.gov is the U.S. government's official web portal to all federal, state and local government web resources and services.